createdAt,value
2019-05-12T00:00:29.947Z,17.32
2019-05-12T00:01:29.951Z,17.33
2019-05-12T00:02:29.942Z,17.33
2019-05-12T00:04:29.978Z,17.33
2019-05-12T00:05:29.948Z,17.33
2019-05-12T00:06:29.955Z,17.31
2019-05-12T00:07:29.957Z,17.32
2019-05-12T00:10:29.936Z,17.33
2019-05-12T00:11:29.950Z,17.32
2019-05-12T00:12:29.954Z,17.33
2019-05-12T00:13:29.954Z,17.33
2019-05-12T00:15:29.956Z,17.33
2019-05-12T00:16:29.970Z,17.33
2019-05-12T00:17:29.967Z,17.32
2019-05-12T00:18:29.957Z,17.32
2019-05-12T00:20:29.956Z,17.33
2019-05-12T00:21:29.977Z,17.32
2019-05-12T00:22:29.972Z,17.33
2019-05-12T00:23:31.200Z,17.32
2019-05-12T00:25:29.998Z,17.31
2019-05-12T00:26:29.980Z,17.32
2019-05-12T00:27:29.960Z,17.32
2019-05-12T00:28:29.993Z,17.33
2019-05-12T00:30:29.968Z,17.32
2019-05-12T00:31:29.951Z,17.32
2019-05-12T00:32:29.981Z,17.32
2019-05-12T00:33:29.980Z,17.33
2019-05-12T00:35:30.001Z,17.33
2019-05-12T00:36:29.982Z,17.31
2019-05-12T00:37:29.985Z,17.31
2019-05-12T00:38:30.015Z,17.33
2019-05-12T00:40:30.004Z,17.32
2019-05-12T00:41:30.020Z,17.33
2019-05-12T00:42:30.012Z,17.33
2019-05-12T00:44:30.008Z,17.33
2019-05-12T00:45:29.978Z,17.32
2019-05-12T00:46:30.029Z,17.32
2019-05-12T00:47:30.011Z,17.32
2019-05-12T00:49:30.004Z,17.31
2019-05-12T00:50:29.993Z,17.32
2019-05-12T00:51:29.991Z,17.33
2019-05-12T00:52:29.996Z,17.31
2019-05-12T00:55:29.991Z,17.32
2019-05-12T00:56:30.041Z,17.32
2019-05-12T00:57:30.034Z,17.32
2019-05-12T00:58:30.014Z,17.32
2019-05-12T01:00:30.025Z,17.31
2019-05-12T01:01:30.017Z,17.33
2019-05-12T01:02:30.026Z,17.31
2019-05-12T01:03:30.002Z,17.32
2019-05-12T01:05:30.025Z,17.33
2019-05-12T01:06:30.004Z,17.29
2019-05-12T01:07:30.027Z,17.32
2019-05-12T01:08:30.017Z,17.31
2019-05-12T01:10:30.017Z,17.33
2019-05-12T01:11:30.028Z,17.32
2019-05-12T01:12:30.036Z,17.32
2019-05-12T01:13:30.041Z,17.32
2019-05-12T01:16:30.048Z,17.32
2019-05-12T01:17:30.035Z,17.29
2019-05-12T01:18:30.041Z,17.32
2019-05-12T01:19:30.016Z,17.32
2019-05-12T01:21:30.037Z,17.32
2019-05-12T01:22:30.050Z,17.32
2019-05-12T01:23:30.057Z,17.32
2019-05-12T01:24:30.043Z,17.32
2019-05-12T01:26:30.035Z,17.31
2019-05-12T01:27:30.060Z,17.31
2019-05-12T01:28:30.026Z,17.31
2019-05-12T01:29:30.060Z,17.29
2019-05-12T01:31:30.028Z,17.31
2019-05-12T01:32:30.037Z,17.31
2019-05-12T01:33:30.062Z,17.31
2019-05-12T01:34:30.061Z,17.31
2019-05-12T01:36:30.049Z,17.29
2019-05-12T01:37:30.031Z,17.31
2019-05-12T01:38:30.061Z,17.31
2019-05-12T01:39:30.065Z,17.31
2019-05-12T01:41:30.031Z,17.31
2019-05-12T01:42:30.035Z,17.31
2019-05-12T01:44:30.051Z,17.32
2019-05-12T01:45:30.069Z,17.31
2019-05-12T01:46:30.088Z,17.31
2019-05-12T01:47:30.068Z,17.32
2019-05-12T01:49:30.072Z,17.31
2019-05-12T01:50:30.038Z,17.30
2019-05-12T01:51:30.058Z,17.31
2019-05-12T01:52:30.081Z,17.31
2019-05-12T01:55:30.099Z,17.30
2019-05-12T01:56:30.082Z,17.31
2019-05-12T01:57:30.065Z,17.31
2019-05-12T01:58:30.093Z,17.31
2019-05-12T02:00:30.100Z,17.31
2019-05-12T02:01:30.080Z,17.31
2019-05-12T02:02:30.067Z,17.31
2019-05-12T02:03:30.075Z,17.29
2019-05-12T02:06:30.056Z,17.29
2019-05-12T02:07:30.063Z,17.32
2019-05-12T02:09:30.122Z,17.31
2019-05-12T02:10:30.088Z,17.30
2019-05-12T02:11:30.082Z,17.31
2019-05-12T02:12:30.103Z,17.29
2019-05-12T02:14:30.090Z,17.31
2019-05-12T02:15:30.081Z,17.31
2019-05-12T02:16:30.086Z,17.31
2019-05-12T02:17:30.087Z,17.30
2019-05-12T02:19:30.084Z,17.30
2019-05-12T02:20:30.114Z,17.30
2019-05-12T02:21:30.078Z,17.31
2019-05-12T02:22:30.100Z,17.30
2019-05-12T02:24:30.625Z,17.30
2019-05-12T02:25:30.160Z,17.30
2019-05-12T02:26:30.119Z,17.30
2019-05-12T02:27:30.113Z,17.29
2019-05-12T02:29:30.124Z,17.31
2019-05-12T02:30:30.840Z,17.30
2019-05-12T02:31:30.101Z,17.31
2019-05-12T02:32:43.273Z,17.31
2019-05-12T02:34:30.109Z,17.29
2019-05-12T02:35:30.102Z,17.31
2019-05-12T02:36:30.121Z,17.31
2019-05-12T02:37:30.119Z,17.29
2019-05-12T02:39:30.090Z,17.30
2019-05-12T02:40:30.089Z,17.29
2019-05-12T02:41:30.127Z,17.29
2019-05-12T02:42:30.133Z,17.31
2019-05-12T02:44:30.108Z,17.31
2019-05-12T02:45:30.100Z,17.30
2019-05-12T02:46:30.125Z,17.30
2019-05-12T02:47:30.118Z,17.29
2019-05-12T02:50:30.138Z,17.30
2019-05-12T02:51:30.131Z,17.30
2019-05-12T02:52:30.118Z,17.28
2019-05-12T02:53:30.152Z,17.30
2019-05-12T02:55:30.133Z,17.29
2019-05-12T02:56:30.173Z,17.29
2019-05-12T02:57:30.145Z,17.30
2019-05-12T02:58:30.132Z,17.30
2019-05-12T03:00:30.130Z,17.29
2019-05-12T03:01:30.120Z,17.29
2019-05-12T03:02:30.147Z,17.29
2019-05-12T03:03:30.157Z,17.29
2019-05-12T03:05:30.130Z,17.29
2019-05-12T03:06:30.124Z,17.28
2019-05-12T03:07:30.169Z,17.29
2019-05-12T03:08:30.155Z,17.29
2019-05-12T03:10:30.153Z,17.28
2019-05-12T03:11:30.128Z,17.30
2019-05-12T03:12:30.133Z,17.30
2019-05-12T03:13:30.155Z,17.28
2019-05-12T03:16:30.155Z,17.31
2019-05-12T03:17:30.180Z,17.29
2019-05-12T03:18:30.160Z,17.30
2019-05-12T03:19:30.138Z,17.30
2019-05-12T03:21:30.132Z,17.28
2019-05-12T03:22:30.158Z,17.29
2019-05-12T03:23:30.156Z,17.29
2019-05-12T03:24:30.146Z,17.30
2019-05-12T03:26:30.162Z,17.29
2019-05-12T03:27:30.150Z,17.28
2019-05-12T03:28:30.195Z,17.29
2019-05-12T03:29:30.202Z,17.28
2019-05-12T03:31:31.994Z,17.29
2019-05-12T03:32:30.172Z,17.29
2019-05-12T03:33:35.868Z,17.29
2019-05-12T03:34:30.258Z,17.31
2019-05-12T03:36:34.804Z,17.29
2019-05-12T03:37:31.381Z,17.30
2019-05-12T03:38:30.183Z,17.30
2019-05-12T03:40:30.172Z,17.29
2019-05-12T03:41:30.197Z,17.29
2019-05-12T03:42:30.184Z,17.28
2019-05-12T03:43:30.162Z,17.29
2019-05-12T03:45:30.178Z,17.27
2019-05-12T03:46:30.183Z,17.29
2019-05-12T03:47:30.194Z,17.28
2019-05-12T03:48:30.166Z,17.29
2019-05-12T03:50:30.220Z,17.29
2019-05-12T03:51:30.187Z,17.29
2019-05-12T03:52:30.174Z,17.29
2019-05-12T03:53:30.206Z,17.29
2019-05-12T03:55:35.859Z,17.27
2019-05-12T03:56:30.175Z,17.29
2019-05-12T03:57:30.207Z,17.29
2019-05-12T03:58:30.203Z,17.28
2019-05-12T04:00:30.229Z,17.29
2019-05-12T04:01:30.233Z,17.29
2019-05-12T04:02:30.223Z,17.27
2019-05-12T04:03:30.177Z,17.28
2019-05-12T04:05:30.253Z,17.29
2019-05-12T04:06:30.191Z,17.28
2019-05-12T04:07:30.231Z,17.27
2019-05-12T04:08:30.209Z,17.29
2019-05-12T04:10:30.223Z,17.28
2019-05-12T04:11:30.208Z,17.29
2019-05-12T04:12:30.219Z,17.28
2019-05-12T04:13:30.205Z,17.29
2019-05-12T04:15:30.195Z,17.29
2019-05-12T04:16:30.225Z,17.28
2019-05-12T04:17:30.204Z,17.29
2019-05-12T04:18:30.216Z,17.28
2019-05-12T04:21:30.233Z,17.29
2019-05-12T04:22:30.210Z,17.27
2019-05-12T04:23:30.225Z,17.29
2019-05-12T04:24:30.224Z,17.29
2019-05-12T04:26:30.216Z,17.29
2019-05-12T04:27:30.217Z,17.29
2019-05-12T04:28:30.232Z,17.29
2019-05-12T04:29:30.182Z,17.29
2019-05-12T04:31:30.230Z,17.29
2019-05-12T04:32:30.234Z,17.29
2019-05-12T04:33:30.255Z,17.28
2019-05-12T04:34:30.222Z,17.29
2019-05-12T04:36:30.228Z,17.29
2019-05-12T04:37:30.215Z,17.29
2019-05-12T04:38:30.253Z,17.29
2019-05-12T04:39:30.248Z,17.29
2019-05-12T04:41:30.218Z,17.28
2019-05-12T04:42:30.271Z,17.27
2019-05-12T04:43:30.252Z,17.28
2019-05-12T04:44:30.261Z,17.28
2019-05-12T04:46:30.234Z,17.29
2019-05-12T04:47:30.223Z,17.28
2019-05-12T04:48:30.271Z,17.27
2019-05-12T04:50:30.236Z,17.28
2019-05-12T04:51:30.270Z,17.27
2019-05-12T04:52:30.282Z,17.29
2019-05-12T04:53:30.270Z,17.28
2019-05-12T04:56:30.249Z,17.28
2019-05-12T04:57:30.280Z,17.29
2019-05-12T04:58:30.258Z,17.28
2019-05-12T04:59:30.292Z,17.28
2019-05-12T05:02:30.239Z,17.28
2019-05-12T05:03:30.238Z,17.29
2019-05-12T05:04:30.281Z,17.28
2019-05-12T05:05:30.265Z,17.28
2019-05-12T05:07:30.248Z,17.28
2019-05-12T05:08:30.259Z,17.29
2019-05-12T05:09:30.269Z,17.28
2019-05-12T05:10:30.264Z,17.26
2019-05-12T05:12:30.267Z,17.29
2019-05-12T05:13:30.282Z,17.28
2019-05-12T05:14:30.291Z,17.28
2019-05-12T05:15:30.272Z,17.28
2019-05-12T05:17:30.266Z,17.27
2019-05-12T05:18:30.264Z,17.28
2019-05-12T05:19:30.272Z,17.29
2019-05-12T05:20:30.261Z,17.28
2019-05-12T05:22:30.275Z,17.28
2019-05-12T05:23:30.257Z,17.29
2019-05-12T05:24:30.262Z,17.26
2019-05-12T05:25:30.264Z,17.27
2019-05-12T05:27:30.283Z,17.28
2019-05-12T05:28:30.305Z,17.27
2019-05-12T05:29:30.287Z,17.27
2019-05-12T05:30:30.296Z,17.28
2019-05-12T05:32:30.290Z,17.27
2019-05-12T05:33:30.286Z,17.28
2019-05-12T05:34:30.271Z,17.28
2019-05-12T05:35:35.158Z,17.28
2019-05-12T05:38:30.305Z,17.28
2019-05-12T05:40:30.461Z,17.27
2019-05-12T05:41:30.282Z,17.28
2019-05-12T05:42:32.770Z,17.29
2019-05-12T05:43:30.304Z,17.28
2019-05-12T05:45:30.298Z,17.28
2019-05-12T05:46:30.278Z,17.28
2019-05-12T05:47:30.339Z,17.28
2019-05-12T05:48:32.168Z,17.28
2019-05-12T05:50:30.314Z,17.28
2019-05-12T05:51:30.305Z,17.28
2019-05-12T05:52:33.086Z,17.27
2019-05-12T05:53:30.335Z,17.28
2019-05-12T05:56:39.869Z,17.27
2019-05-12T05:57:30.306Z,17.28
2019-05-12T05:58:30.292Z,17.28
2019-05-12T05:59:31.656Z,17.26
2019-05-12T06:01:30.328Z,17.27
2019-05-12T06:02:36.540Z,17.26
2019-05-12T06:03:30.352Z,17.26
2019-05-12T06:04:30.337Z,17.28
2019-05-12T06:06:30.364Z,17.28
2019-05-12T06:07:34.631Z,17.28
2019-05-12T06:08:30.298Z,17.27
2019-05-12T06:09:30.328Z,17.28
2019-05-12T06:11:30.328Z,17.28
2019-05-12T06:12:30.310Z,17.28
2019-05-12T06:13:31.749Z,17.26
2019-05-12T06:14:30.327Z,17.26
2019-05-12T06:16:30.317Z,17.26
2019-05-12T06:17:30.333Z,17.28
2019-05-12T06:18:30.328Z,17.28
2019-05-12T06:19:30.410Z,17.27
2019-05-12T06:21:36.377Z,17.28
2019-05-12T06:22:30.352Z,17.27
2019-05-12T06:23:34.830Z,17.27
2019-05-12T06:24:30.318Z,17.26
2019-05-12T06:27:32.887Z,17.26
2019-05-12T06:28:31.035Z,17.28
2019-05-12T06:29:30.335Z,17.27
2019-05-12T06:30:30.364Z,17.27
2019-05-12T06:32:30.347Z,17.27
2019-05-12T06:33:31.872Z,17.27
2019-05-12T06:35:30.856Z,17.27
2019-05-12T06:36:30.327Z,17.28
2019-05-12T06:37:30.346Z,17.27
2019-05-12T06:38:30.948Z,17.27
2019-05-12T06:40:30.788Z,17.25
2019-05-12T06:41:30.335Z,17.27
2019-05-12T06:42:30.367Z,17.27
2019-05-12T06:43:35.326Z,17.27
2019-05-12T06:46:30.400Z,17.26
2019-05-12T06:47:30.374Z,17.27
2019-05-12T06:48:30.424Z,17.27
2019-05-12T06:49:30.383Z,17.27
2019-05-12T06:51:30.393Z,17.26
2019-05-12T06:52:30.347Z,17.28
2019-05-12T06:53:31.172Z,17.27
2019-05-12T06:54:30.349Z,17.28
2019-05-12T06:56:30.407Z,17.27
2019-05-12T06:57:30.388Z,17.26
2019-05-12T06:58:31.479Z,17.27
2019-05-12T07:00:32.049Z,17.28
2019-05-12T07:01:30.365Z,17.28
2019-05-12T07:02:34.829Z,17.26
2019-05-12T07:03:32.531Z,17.28
2019-05-12T07:05:35.899Z,17.27
2019-05-12T07:06:30.380Z,17.26
2019-05-12T07:07:35.544Z,17.27
2019-05-12T07:08:32.150Z,17.27
2019-05-12T07:10:42.583Z,17.28
2019-05-12T07:11:41.513Z,17.28
2019-05-12T07:12:36.524Z,17.27
2019-05-12T07:13:30.400Z,17.27
2019-05-12T07:15:35.802Z,17.24
2019-05-12T07:16:30.519Z,17.26
2019-05-12T07:17:37.258Z,17.27
2019-05-12T07:18:32.835Z,17.30
2019-05-12T07:21:30.379Z,17.37
2019-05-12T07:22:31.867Z,17.37
2019-05-12T07:23:30.425Z,17.39
2019-05-12T07:24:30.400Z,17.42
2019-05-12T07:27:36.746Z,17.45
2019-05-12T07:28:35.128Z,17.44
2019-05-12T07:29:30.387Z,17.42
2019-05-12T07:30:32.702Z,17.41
2019-05-12T07:33:35.175Z,17.38
2019-05-12T07:34:30.411Z,17.38
2019-05-12T07:35:30.406Z,17.37
2019-05-12T07:36:40.546Z,17.37
2019-05-12T07:38:30.436Z,17.35
2019-05-12T07:39:30.393Z,17.35
2019-05-12T07:40:32.329Z,17.35
2019-05-12T07:41:30.522Z,17.35
2019-05-12T07:43:30.465Z,17.33
2019-05-12T07:46:30.421Z,17.33
2019-05-12T07:47:30.457Z,17.32
2019-05-12T07:48:30.422Z,17.33
2019-05-12T07:49:36.924Z,17.32
2019-05-12T07:51:35.367Z,17.31
2019-05-12T07:52:30.425Z,17.29
2019-05-12T07:53:30.421Z,17.29
2019-05-12T07:54:37.355Z,17.30
2019-05-12T07:56:32.708Z,17.29
2019-05-12T07:57:30.423Z,17.30
2019-05-12T07:58:30.437Z,17.29
2019-05-12T07:59:38.891Z,17.31
2019-05-12T08:01:35.822Z,17.29
2019-05-12T08:02:32.076Z,17.29
2019-05-12T08:03:30.469Z,17.29
2019-05-12T08:04:33.905Z,17.29
2019-05-12T08:06:34.652Z,17.28
2019-05-12T08:07:30.426Z,17.28
2019-05-12T08:08:30.467Z,17.28
2019-05-12T08:09:32.528Z,17.29
2019-05-12T08:11:36.004Z,17.28
2019-05-12T08:12:30.462Z,17.28
2019-05-12T08:13:31.367Z,17.27
2019-05-12T08:14:30.465Z,17.27
2019-05-12T08:16:36.176Z,17.28
2019-05-12T08:17:30.450Z,17.27
2019-05-12T08:18:36.773Z,17.31
2019-05-12T08:19:30.609Z,17.36
2019-05-12T08:21:34.774Z,17.45
2019-05-12T08:22:30.721Z,17.50
2019-05-12T08:23:30.502Z,17.53
2019-05-12T08:24:36.904Z,17.55
2019-05-12T08:26:30.451Z,17.57
2019-05-12T08:27:30.438Z,17.61
2019-05-12T08:28:35.800Z,17.57
2019-05-12T08:29:30.482Z,17.59
2019-05-12T08:31:33.129Z,17.58
2019-05-12T08:32:30.485Z,17.58
2019-05-12T08:33:30.501Z,17.58
2019-05-12T08:34:30.506Z,17.57
2019-05-12T08:36:30.516Z,17.60
2019-05-12T08:37:30.522Z,17.64
2019-05-12T08:38:30.619Z,17.65
2019-05-12T08:39:30.489Z,17.67
2019-05-12T08:41:30.510Z,17.73
2019-05-12T08:42:30.516Z,17.73
2019-05-12T08:43:30.514Z,17.75
2019-05-12T08:44:33.573Z,17.76
2019-05-12T08:46:30.511Z,17.80
2019-05-12T08:47:35.539Z,17.80
2019-05-12T08:48:30.472Z,17.81
2019-05-12T08:49:34.116Z,17.77
2019-05-12T08:51:30.528Z,17.77
2019-05-12T08:52:35.978Z,17.75
2019-05-12T08:53:30.493Z,17.74
2019-05-12T08:54:30.511Z,17.73
2019-05-12T08:56:30.511Z,17.71
2019-05-12T08:57:34.824Z,17.69
2019-05-12T08:58:34.027Z,17.68
2019-05-12T08:59:30.476Z,17.69
2019-05-12T09:02:30.522Z,17.66
2019-05-12T09:03:30.719Z,17.66
2019-05-12T09:04:30.533Z,17.66
2019-05-12T09:05:34.431Z,17.64
2019-05-12T09:07:34.671Z,17.64
2019-05-12T09:08:30.496Z,17.61
2019-05-12T09:09:30.611Z,17.61
2019-05-12T09:10:30.501Z,17.61
2019-05-12T09:13:30.556Z,17.60
2019-05-12T09:14:35.580Z,17.59
2019-05-12T09:15:30.511Z,17.58
2019-05-12T09:16:30.507Z,17.58
2019-05-12T09:18:35.279Z,17.62
2019-05-12T09:19:30.528Z,17.65
2019-05-12T09:20:30.527Z,17.65
2019-05-12T09:21:34.100Z,17.68
2019-05-12T09:23:32.838Z,17.72
2019-05-12T09:24:30.507Z,17.75
2019-05-12T09:25:30.547Z,17.74
2019-05-12T09:26:30.505Z,17.77
2019-05-12T09:29:30.521Z,17.79
2019-05-12T09:30:30.533Z,17.80
2019-05-12T09:31:30.555Z,17.81
2019-05-12T09:33:32.495Z,17.77
2019-05-12T09:34:30.547Z,17.77
2019-05-12T09:35:34.880Z,17.78
2019-05-12T09:36:30.546Z,17.75
2019-05-12T09:38:30.521Z,17.75
2019-05-12T09:39:34.166Z,17.74
2019-05-12T09:40:30.563Z,17.74
2019-05-12T09:41:36.004Z,17.71
2019-05-12T09:43:30.519Z,17.72
2019-05-12T09:44:30.708Z,17.69
2019-05-12T09:45:30.511Z,17.70
2019-05-12T09:46:34.273Z,17.68
2019-05-12T09:48:30.640Z,17.72
2019-05-12T09:49:31.502Z,17.76
2019-05-12T09:50:30.554Z,17.78
2019-05-12T09:51:34.179Z,17.79
2019-05-12T09:53:30.521Z,17.82
2019-05-12T09:54:35.378Z,17.84
2019-05-12T09:55:30.581Z,17.86
2019-05-12T09:56:30.564Z,17.86
2019-05-12T09:58:30.597Z,17.87
2019-05-12T10:00:35.656Z,17.90
2019-05-12T10:01:35.220Z,17.90
2019-05-12T10:02:30.592Z,17.90
2019-05-12T10:03:35.500Z,17.93
2019-05-12T10:05:36.186Z,17.93
2019-05-12T10:06:30.545Z,17.97
2019-05-12T10:07:30.574Z,18.02
2019-05-12T10:08:35.960Z,18.17
2019-05-12T10:10:38.043Z,18.28
2019-05-12T10:11:30.605Z,18.28
2019-05-12T10:12:38.811Z,18.28
2019-05-12T10:13:30.583Z,18.31
2019-05-12T10:15:30.583Z,18.35
2019-05-12T10:16:30.567Z,18.35
2019-05-12T10:17:30.564Z,18.33
2019-05-12T10:18:30.576Z,18.30
2019-05-12T10:20:35.418Z,18.25
2019-05-12T10:21:30.603Z,18.25
2019-05-12T10:22:37.751Z,18.22
2019-05-12T10:23:30.574Z,18.21
2019-05-12T10:26:30.583Z,18.20
2019-05-12T10:27:32.468Z,18.17
2019-05-12T10:28:30.611Z,18.20
2019-05-12T10:29:32.156Z,18.20
2019-05-12T10:32:30.570Z,18.17
2019-05-12T10:33:30.639Z,18.15
2019-05-12T10:34:36.029Z,18.14
2019-05-12T10:35:30.605Z,18.13
2019-05-12T10:37:30.613Z,18.12
2019-05-12T10:38:30.619Z,18.10
2019-05-12T10:39:30.623Z,18.10
2019-05-12T10:40:30.603Z,18.07
2019-05-12T10:42:30.624Z,18.06
2019-05-12T10:43:30.630Z,18.05
2019-05-12T10:44:36.349Z,18.06
2019-05-12T10:45:30.644Z,18.07
2019-05-12T10:47:30.615Z,18.05
2019-05-12T10:48:30.587Z,18.04
2019-05-12T10:49:30.588Z,18.06
2019-05-12T10:50:30.641Z,18.05
2019-05-12T10:53:30.606Z,18.02
2019-05-12T10:54:30.597Z,18.02
2019-05-12T10:55:30.628Z,18.01
2019-05-12T10:56:30.642Z,18.01
2019-05-12T10:58:30.660Z,17.98
2019-05-12T10:59:33.466Z,17.98
2019-05-12T11:00:30.610Z,17.97
2019-05-12T11:01:30.577Z,17.95
2019-05-12T11:04:36.964Z,17.97
2019-05-12T11:05:30.616Z,17.94
2019-05-12T11:06:30.600Z,17.95
2019-05-12T11:07:30.615Z,17.94
2019-05-12T11:09:33.865Z,17.92
2019-05-12T11:11:32.831Z,17.93
2019-05-12T11:12:30.624Z,17.93
2019-05-12T11:14:30.731Z,17.91
2019-05-12T11:15:30.640Z,17.90
2019-05-12T11:16:32.263Z,17.91
2019-05-12T11:17:30.720Z,17.90
2019-05-12T11:19:30.640Z,17.89
2019-05-12T11:20:30.688Z,17.88
2019-05-12T11:21:30.623Z,17.88
2019-05-12T11:22:30.657Z,17.88
2019-05-12T11:25:30.651Z,17.89
2019-05-12T11:26:30.686Z,17.87
2019-05-12T11:27:30.635Z,17.88
2019-05-12T11:28:30.669Z,17.87
2019-05-12T11:30:30.694Z,17.87
2019-05-12T11:32:34.700Z,17.84
2019-05-12T11:33:30.677Z,17.86
2019-05-12T11:34:30.662Z,17.86
2019-05-12T11:35:30.658Z,17.85
2019-05-12T11:37:30.672Z,17.84
2019-05-12T11:38:30.683Z,17.85
2019-05-12T11:39:35.690Z,17.85
2019-05-12T11:40:30.657Z,17.84
2019-05-12T11:42:30.626Z,17.83
2019-05-12T11:43:30.667Z,17.82
2019-05-12T11:44:30.654Z,17.83
2019-05-12T11:45:30.720Z,17.83
2019-05-12T11:47:30.641Z,17.83
2019-05-12T11:48:30.663Z,17.83
2019-05-12T11:49:30.637Z,17.82
2019-05-12T11:50:30.667Z,17.82
2019-05-12T11:52:30.706Z,17.82
2019-05-12T11:53:32.395Z,17.80
2019-05-12T11:54:30.665Z,17.82
2019-05-12T11:55:31.857Z,17.81
2019-05-12T11:57:30.668Z,17.82
2019-05-12T11:58:30.660Z,17.81
2019-05-12T11:59:30.648Z,17.81
2019-05-12T12:00:30.657Z,17.81
2019-05-12T12:02:30.812Z,17.81
2019-05-12T12:03:30.729Z,17.81
2019-05-12T12:04:30.688Z,17.79
2019-05-12T12:05:30.726Z,17.79
2019-05-12T12:07:30.680Z,17.80
2019-05-12T12:08:35.692Z,17.79
2019-05-12T12:09:30.642Z,17.80
2019-05-12T12:10:35.413Z,17.80
2019-05-12T12:12:30.690Z,17.79
2019-05-12T12:13:30.683Z,17.80
2019-05-12T12:14:31.876Z,17.79
2019-05-12T12:15:30.682Z,17.79
2019-05-12T12:18:30.706Z,17.80
2019-05-12T12:19:35.014Z,17.79
2019-05-12T12:20:30.664Z,17.78
2019-05-12T12:21:34.293Z,17.78
2019-05-12T12:23:30.704Z,17.78
2019-05-12T12:24:31.610Z,17.77
2019-05-12T12:25:30.714Z,17.78
2019-05-12T12:26:32.677Z,17.79
2019-05-12T12:28:30.690Z,17.78
2019-05-12T12:29:30.670Z,17.77
2019-05-12T12:30:30.700Z,17.77
2019-05-12T12:31:37.237Z,17.78
2019-05-12T12:33:35.685Z,17.78
2019-05-12T12:34:30.761Z,17.78
2019-05-12T12:35:30.684Z,17.79
2019-05-12T12:36:30.696Z,17.78
2019-05-12T12:39:30.769Z,17.77
2019-05-12T12:40:30.746Z,17.77
2019-05-12T12:41:30.714Z,17.77
2019-05-12T12:43:30.714Z,17.78
2019-05-12T12:44:30.793Z,17.82
2019-05-12T12:45:35.567Z,17.84
2019-05-12T12:46:30.718Z,17.87
2019-05-12T12:48:30.732Z,17.86
2019-05-12T12:49:30.721Z,17.84
2019-05-12T12:50:30.856Z,17.83
2019-05-12T12:51:30.711Z,17.84
2019-05-12T12:53:30.710Z,17.84
2019-05-12T12:54:30.748Z,17.83
2019-05-12T12:55:30.748Z,17.83
2019-05-12T12:56:30.712Z,17.82
2019-05-12T12:58:31.427Z,17.83
2019-05-12T12:59:30.735Z,17.83
2019-05-12T13:00:40.699Z,17.84
2019-05-12T13:01:32.785Z,17.82
2019-05-12T13:03:30.736Z,17.83
2019-05-12T13:04:30.754Z,17.83
2019-05-12T13:05:30.761Z,17.84
2019-05-12T13:06:30.774Z,17.87
2019-05-12T13:08:30.724Z,17.84
2019-05-12T13:09:33.262Z,17.83
2019-05-12T13:10:30.736Z,17.82
2019-05-12T13:11:33.575Z,17.81
2019-05-12T13:13:30.784Z,17.80
2019-05-12T13:14:36.458Z,17.82
2019-05-12T13:15:30.753Z,17.80
2019-05-12T13:16:30.739Z,17.80
2019-05-12T13:18:33.958Z,17.79
2019-05-12T13:19:33.116Z,17.79
2019-05-12T13:20:30.739Z,17.80
2019-05-12T13:21:30.757Z,17.81
2019-05-12T13:23:38.047Z,17.82
2019-05-12T13:24:30.749Z,17.80
2019-05-12T13:25:30.764Z,17.80
2019-05-12T13:26:30.760Z,17.77
2019-05-12T13:28:30.777Z,17.78
2019-05-12T13:29:35.415Z,17.77
2019-05-12T13:30:43.582Z,17.78
2019-05-12T13:31:33.158Z,17.78
2019-05-12T13:33:30.803Z,17.78
2019-05-12T13:34:36.575Z,17.80
2019-05-12T13:35:30.767Z,17.80
2019-05-12T13:36:37.394Z,17.79
2019-05-12T13:39:30.770Z,17.77
2019-05-12T13:40:36.142Z,17.76
2019-05-12T13:41:30.764Z,17.76
2019-05-12T13:42:35.794Z,17.75
2019-05-12T13:44:38.739Z,17.76
2019-05-12T13:45:30.826Z,17.75
2019-05-12T13:46:30.780Z,17.74
2019-05-12T13:47:35.331Z,17.75
2019-05-12T13:49:36.207Z,17.75
2019-05-12T13:50:30.768Z,17.74
2019-05-12T13:51:33.206Z,17.74
2019-05-12T13:52:33.102Z,17.81
2019-05-12T13:54:30.804Z,17.82
2019-05-12T13:55:30.766Z,17.85
2019-05-12T13:56:35.229Z,17.88
2019-05-12T13:57:30.774Z,17.92
2019-05-12T13:59:30.792Z,17.91
2019-05-12T14:00:30.823Z,17.91
2019-05-12T14:01:31.882Z,17.94
2019-05-12T14:02:30.841Z,17.95
2019-05-12T14:04:30.789Z,17.99
2019-05-12T14:05:30.794Z,18.05
2019-05-12T14:06:35.590Z,18.06
2019-05-12T14:07:30.825Z,18.09
2019-05-12T14:09:30.813Z,18.09
2019-05-12T14:10:33.206Z,18.08
2019-05-12T14:11:30.851Z,18.08
2019-05-12T14:12:30.870Z,18.08
2019-05-12T14:15:30.803Z,18.11
2019-05-12T14:16:30.864Z,18.12
2019-05-12T14:17:35.684Z,18.10
2019-05-12T14:18:30.810Z,18.10
2019-05-12T14:20:30.833Z,18.10
2019-05-12T14:21:33.120Z,18.11
2019-05-12T14:22:30.812Z,18.09
2019-05-12T14:23:30.854Z,18.08
2019-05-12T14:25:32.391Z,18.10
2019-05-12T14:26:30.826Z,18.11
2019-05-12T14:27:30.837Z,18.09
2019-05-12T14:28:30.830Z,18.07
2019-05-12T14:30:30.800Z,18.10
2019-05-12T14:31:36.373Z,18.10
2019-05-12T14:32:30.841Z,18.09
2019-05-12T14:34:30.806Z,18.09
2019-05-12T14:35:32.408Z,18.10
2019-05-12T14:36:32.098Z,18.10
2019-05-12T14:37:30.856Z,18.09
2019-05-12T14:40:31.530Z,18.09
2019-05-12T14:41:30.878Z,18.10
2019-05-12T14:42:34.657Z,18.11
2019-05-12T14:43:30.868Z,18.10
2019-05-12T14:45:30.824Z,18.10
2019-05-12T14:46:30.874Z,18.10
2019-05-12T14:47:30.842Z,18.08
2019-05-12T14:48:30.842Z,18.10
2019-05-12T14:50:30.842Z,18.15
2019-05-12T14:51:30.829Z,18.12
2019-05-12T14:52:33.158Z,18.11
2019-05-12T14:53:32.985Z,18.10
2019-05-12T14:55:30.833Z,18.05
2019-05-12T14:56:30.901Z,18.05
2019-05-12T14:57:37.522Z,18.03
2019-05-12T14:58:30.862Z,18.02
2019-05-12T15:00:30.855Z,18.01
2019-05-12T15:01:44.203Z,17.99
2019-05-12T15:02:33.033Z,17.98
2019-05-12T15:03:30.846Z,17.97
2019-05-12T15:05:30.872Z,17.98
2019-05-12T15:06:30.888Z,17.96
2019-05-12T15:07:30.858Z,17.96
2019-05-12T15:08:36.331Z,17.96
2019-05-12T15:11:30.913Z,17.95
2019-05-12T15:12:30.898Z,17.95
2019-05-12T15:13:30.942Z,17.94
2019-05-12T15:14:33.679Z,17.93
2019-05-12T15:16:31.875Z,17.92
2019-05-12T15:17:30.890Z,17.93
2019-05-12T15:18:30.860Z,17.93
2019-05-12T15:19:33.275Z,17.92
2019-05-12T15:21:31.421Z,17.93
2019-05-12T15:22:33.053Z,17.93
2019-05-12T15:23:33.107Z,17.94
2019-05-12T15:24:30.877Z,17.91
2019-05-12T15:26:30.908Z,17.90
2019-05-12T15:27:42.056Z,17.91
2019-05-12T15:28:30.884Z,17.90
2019-05-12T15:29:30.913Z,17.90
2019-05-12T15:31:30.883Z,17.90
2019-05-12T15:32:30.933Z,17.88
2019-05-12T15:33:33.426Z,17.87
2019-05-12T15:34:30.896Z,17.87
2019-05-12T15:36:30.883Z,17.88
2019-05-12T15:37:36.975Z,17.86
2019-05-12T15:38:30.931Z,17.87
2019-05-12T15:39:30.952Z,17.86
2019-05-12T15:41:33.059Z,17.85
2019-05-12T15:42:30.920Z,17.86
2019-05-12T15:43:37.818Z,17.86
2019-05-12T15:44:32.105Z,17.86
2019-05-12T15:46:33.003Z,17.85
2019-05-12T15:47:30.930Z,17.84
2019-05-12T15:48:30.888Z,17.84
2019-05-12T15:49:30.890Z,17.83
2019-05-12T15:51:35.064Z,17.83
2019-05-12T15:52:38.240Z,17.84
2019-05-12T15:53:30.942Z,17.83
2019-05-12T15:54:31.153Z,17.82
2019-05-12T15:56:30.900Z,17.82
2019-05-12T15:57:33.364Z,17.82
2019-05-12T15:58:30.886Z,17.84
2019-05-12T15:59:30.901Z,17.89
2019-05-12T16:02:30.928Z,17.97
2019-05-12T16:03:30.915Z,17.99
2019-05-12T16:04:34.695Z,18.01
2019-05-12T16:05:31.286Z,18.03
2019-05-12T16:07:35.722Z,18.08
2019-05-12T16:08:30.925Z,18.09
2019-05-12T16:09:30.914Z,18.09
2019-05-12T16:10:30.930Z,18.09
2019-05-12T16:13:30.918Z,18.09
2019-05-12T16:14:35.991Z,18.10
2019-05-12T16:15:30.988Z,18.09
2019-05-12T16:16:34.074Z,18.08
2019-05-12T16:18:30.913Z,18.09
2019-05-12T16:19:30.928Z,18.07
2019-05-12T16:20:33.324Z,18.06
2019-05-12T16:21:30.926Z,18.03
2019-05-12T16:23:30.955Z,18.02
2019-05-12T16:24:30.951Z,18.02
2019-05-12T16:25:31.164Z,18.00
2019-05-12T16:26:30.950Z,18.00
2019-05-12T16:28:33.447Z,17.98
2019-05-12T16:29:30.927Z,17.99
2019-05-12T16:30:30.913Z,18.01
2019-05-12T16:31:30.951Z,18.01
2019-05-12T16:33:33.293Z,18.03
2019-05-12T16:34:38.491Z,18.05
2019-05-12T16:35:31.729Z,18.08
2019-05-12T16:36:30.961Z,18.10
2019-05-12T16:40:30.937Z,18.16
2019-05-12T16:41:30.974Z,18.16
2019-05-12T16:42:33.441Z,18.15
2019-05-12T16:44:31.144Z,18.13
2019-05-12T16:45:30.941Z,18.17
2019-05-12T16:46:30.968Z,18.19
2019-05-12T16:47:33.208Z,18.17
2019-05-12T16:49:33.143Z,18.17